sensor_id;sensor_type;location;lat;lon;timestamp;P1;durP1;ratioP1;P2;durP2;ratioP2
80229;SDS011;69540;42.136;24.742;2024-03-29T00:00:37;6.72;;;2.90;;
80229;SDS011;69540;42.136;24.742;2024-03-29T00:03:03;12.68;;;3.45;;
80229;SDS011;69540;42.136;24.742;2024-03-29T00:05:29;13.65;;;3.60;;
80229;SDS011;69540;42.136;24.742;2024-03-29T00:07:55;9.32;;;3.60;;
80229;SDS011;69540;42.136;24.742;2024-03-29T00:10:21;13.20;;;3.38;;
80229;SDS011;69540;42.136;24.742;2024-03-29T00:12:47;9.50;;;3.78;;
80229;SDS011;69540;42.136;24.742;2024-03-29T00:15:12;9.57;;;3.42;;
80229;SDS011;69540;42.136;24.742;2024-03-29T00:17:38;7.43;;;2.97;;
80229;SDS011;69540;42.136;24.742;2024-03-29T00:20:04;11.90;;;3.83;;
80229;SDS011;69540;42.136;24.742;2024-03-29T00:22:31;9.00;;;3.50;;
80229;SDS011;69540;42.136;24.742;2024-03-29T00:24:56;13.98;;;3.58;;
80229;SDS011;69540;42.136;24.742;2024-03-29T00:27:22;12.23;;;3.58;;
80229;SDS011;69540;42.136;24.742;2024-03-29T00:29:50;6.40;;;2.83;;
80229;SDS011;69540;42.136;24.742;2024-03-29T00:32:19;9.73;;;3.30;;
80229;SDS011;69540;42.136;24.742;2024-03-29T00:34:45;7.15;;;3.03;;
80229;SDS011;69540;42.136;24.742;2024-03-29T00:37:11;6.70;;;3.08;;
80229;SDS011;69540;42.136;24.742;2024-03-29T00:39:37;12.80;;;3.28;;
80229;SDS011;69540;42.136;24.742;2024-03-29T00:42:03;10.48;;;3.30;;
80229;SDS011;69540;42.136;24.742;2024-03-29T00:44:33;7.25;;;3.15;;
80229;SDS011;69540;42.136;24.742;2024-03-29T00:47:00;9.45;;;3.10;;
80229;SDS011;69540;42.136;24.742;2024-03-29T00:49:26;9.13;;;3.15;;
80229;SDS011;69540;42.136;24.742;2024-03-29T00:51:52;9.23;;;2.72;;
80229;SDS011;69540;42.136;24.742;2024-03-29T00:54:18;7.82;;;2.83;;
80229;SDS011;69540;42.136;24.742;2024-03-29T00:56:44;8.90;;;3.05;;
80229;SDS011;69540;42.136;24.742;2024-03-29T00:59:10;6.78;;;2.80;;
80229;SDS011;69540;42.136;24.742;2024-03-29T01:01:35;7.18;;;2.90;;
80229;SDS011;69540;42.136;24.742;2024-03-29T01:04:01;5.22;;;2.33;;
80229;SDS011;69540;42.136;24.742;2024-03-29T01:06:27;4.35;;;2.15;;
80229;SDS011;69540;42.136;24.742;2024-03-29T01:08:52;10.25;;;2.55;;
80229;SDS011;69540;42.136;24.742;2024-03-29T01:11:18;7.45;;;3.05;;
80229;SDS011;69540;42.136;24.742;2024-03-29T01:13:44;7.90;;;2.95;;
80229;SDS011;69540;42.136;24.742;2024-03-29T01:16:09;9.65;;;3.08;;
80229;SDS011;69540;42.136;24.742;2024-03-29T01:18:35;8.45;;;3.13;;
80229;SDS011;69540;42.136;24.742;2024-03-29T01:21:01;9.45;;;3.08;;
80229;SDS011;69540;42.136;24.742;2024-03-29T01:23:26;9.38;;;2.65;;
80229;SDS011;69540;42.136;24.742;2024-03-29T01:25:52;6.97;;;2.55;;
80229;SDS011;69540;42.136;24.742;2024-03-29T01:28:18;10.43;;;3.20;;
80229;SDS011;69540;42.136;24.742;2024-03-29T01:30:43;9.70;;;3.05;;
80229;SDS011;69540;42.136;24.742;2024-03-29T01:33:17;8.23;;;2.55;;
80229;SDS011;69540;42.136;24.742;2024-03-29T01:35:43;8.80;;;3.17;;
80229;SDS011;69540;42.136;24.742;2024-03-29T01:38:08;5.03;;;2.70;;
80229;SDS011;69540;42.136;24.742;2024-03-29T01:40:34;9.82;;;3.00;;
80229;SDS011;69540;42.136;24.742;2024-03-29T01:43:00;8.48;;;2.83;;
80229;SDS011;69540;42.136;24.742;2024-03-29T01:45:26;9.23;;;2.88;;
80229;SDS011;69540;42.136;24.742;2024-03-29T01:47:52;6.22;;;2.30;;
80229;SDS011;69540;42.136;24.742;2024-03-29T01:50:18;11.43;;;3.60;;
80229;SDS011;69540;42.136;24.742;2024-03-29T01:52:45;7.75;;;2.53;;
80229;SDS011;69540;42.136;24.742;2024-03-29T01:55:11;7.25;;;2.78;;
80229;SDS011;69540;42.136;24.742;2024-03-29T01:57:37;7.65;;;2.80;;
80229;SDS011;69540;42.136;24.742;2024-03-29T02:00:03;8.35;;;2.38;;
80229;SDS011;69540;42.136;24.742;2024-03-29T02:02:31;10.13;;;2.75;;
80229;SDS011;69540;42.136;24.742;2024-03-29T02:04:58;6.70;;;2.53;;
80229;SDS011;69540;42.136;24.742;2024-03-29T02:07:24;8.30;;;2.65;;
80229;SDS011;69540;42.136;24.742;2024-03-29T02:09:51;7.65;;;2.60;;
80229;SDS011;69540;42.136;24.742;2024-03-29T02:12:16;8.73;;;2.95;;
80229;SDS011;69540;42.136;24.742;2024-03-29T02:14:42;5.90;;;2.47;;
80229;SDS011;69540;42.136;24.742;2024-03-29T02:17:08;7.15;;;3.15;;
80229;SDS011;69540;42.136;24.742;2024-03-29T02:19:34;9.93;;;3.00;;
80229;SDS011;69540;42.136;24.742;2024-03-29T02:22:01;7.43;;;2.53;;
80229;SDS011;69540;42.136;24.742;2024-03-29T02:24:31;9.55;;;3.17;;
80229;SDS011;69540;42.136;24.742;2024-03-29T02:26:57;7.07;;;2.67;;
80229;SDS011;69540;42.136;24.742;2024-03-29T02:29:23;7.25;;;3.20;;
80229;SDS011;69540;42.136;24.742;2024-03-29T02:31:49;9.60;;;3.70;;
80229;SDS011;69540;42.136;24.742;2024-03-29T02:34:15;6.63;;;2.70;;
80229;SDS011;69540;42.136;24.742;2024-03-29T02:36:41;8.63;;;2.70;;
80229;SDS011;69540;42.136;24.742;2024-03-29T02:39:08;4.90;;;2.10;;
80229;SDS011;69540;42.136;24.742;2024-03-29T02:41:35;7.50;;;2.28;;
80229;SDS011;69540;42.136;24.742;2024-03-29T02:44:00;8.43;;;2.35;;
80229;SDS011;69540;42.136;24.742;2024-03-29T02:46:26;6.10;;;2.10;;
80229;SDS011;69540;42.136;24.742;2024-03-29T02:48:52;7.15;;;2.53;;
80229;SDS011;69540;42.136;24.742;2024-03-29T02:51:18;4.80;;;2.15;;
80229;SDS011;69540;42.136;24.742;2024-03-29T02:53:44;6.85;;;2.10;;
80229;SDS011;69540;42.136;24.742;2024-03-29T02:56:09;6.47;;;2.00;;
80229;SDS011;69540;42.136;24.742;2024-03-29T02:58:35;9.63;;;2.50;;
80229;SDS011;69540;42.136;24.742;2024-03-29T03:01:10;5.13;;;1.95;;
80229;SDS011;69540;42.136;24.742;2024-03-29T03:03:36;5.93;;;1.98;;
80229;SDS011;69540;42.136;24.742;2024-03-29T03:06:02;8.55;;;2.28;;
80229;SDS011;69540;42.136;24.742;2024-03-29T03:08:29;8.63;;;2.20;;
80229;SDS011;69540;42.136;24.742;2024-03-29T03:11:13;8.90;;;2.22;;
80229;SDS011;69540;42.136;24.742;2024-03-29T03:13:39;7.38;;;2.33;;
80229;SDS011;69540;42.136;24.742;2024-03-29T03:16:05;4.38;;;1.90;;
80229;SDS011;69540;42.136;24.742;2024-03-29T03:18:31;7.65;;;2.47;;
80229;SDS011;69540;42.136;24.742;2024-03-29T03:20:57;6.43;;;2.17;;
80229;SDS011;69540;42.136;24.742;2024-03-29T03:23:23;6.32;;;1.98;;
80229;SDS011;69540;42.136;24.742;2024-03-29T03:28:21;10.45;;;2.40;;
80229;SDS011;69540;42.136;24.742;2024-03-29T03:30:51;5.97;;;2.15;;
80229;SDS011;69540;42.136;24.742;2024-03-29T03:33:18;6.18;;;2.38;;
80229;SDS011;69540;42.136;24.742;2024-03-29T03:35:44;9.27;;;2.47;;
80229;SDS011;69540;42.136;24.742;2024-03-29T03:38:10;9.10;;;2.90;;
80229;SDS011;69540;42.136;24.742;2024-03-29T03:40:37;6.97;;;2.35;;
80229;SDS011;69540;42.136;24.742;2024-03-29T03:43:03;9.85;;;3.00;;
80229;SDS011;69540;42.136;24.742;2024-03-29T03:45:36;5.10;;;2.17;;
80229;SDS011;69540;42.136;24.742;2024-03-29T03:48:04;5.38;;;1.92;;
80229;SDS011;69540;42.136;24.742;2024-03-29T03:50:31;6.28;;;2.05;;
80229;SDS011;69540;42.136;24.742;2024-03-29T03:52:57;5.38;;;1.80;;
80229;SDS011;69540;42.136;24.742;2024-03-29T03:55:23;5.22;;;2.05;;
80229;SDS011;69540;42.136;24.742;2024-03-29T03:57:49;7.85;;;2.13;;
80229;SDS011;69540;42.136;24.742;2024-03-29T04:00:15;6.50;;;2.00;;
80229;SDS011;69540;42.136;24.742;2024-03-29T04:02:46;6.03;;;2.15;;
80229;SDS011;69540;42.136;24.742;2024-03-29T04:05:13;4.15;;;1.80;;
80229;SDS011;69540;42.136;24.742;2024-03-29T04:07:39;6.05;;;2.00;;
80229;SDS011;69540;42.136;24.742;2024-03-29T04:10:05;4.60;;;1.92;;
80229;SDS011;69540;42.136;24.742;2024-03-29T04:12:30;5.68;;;1.45;;
80229;SDS011;69540;42.136;24.742;2024-03-29T04:14:56;5.03;;;1.85;;
80229;SDS011;69540;42.136;24.742;2024-03-29T04:17:25;8.07;;;2.20;;
80229;SDS011;69540;42.136;24.742;2024-03-29T04:19:51;4.20;;;1.83;;
80229;SDS011;69540;42.136;24.742;2024-03-29T04:22:17;5.03;;;1.50;;
80229;SDS011;69540;42.136;24.742;2024-03-29T04:24:42;6.35;;;2.05;;
80229;SDS011;69540;42.136;24.742;2024-03-29T04:27:08;6.32;;;1.80;;
80229;SDS011;69540;42.136;24.742;2024-03-29T04:29:34;7.22;;;1.88;;
80229;SDS011;69540;42.136;24.742;2024-03-29T04:31:59;4.03;;;1.40;;
80229;SDS011;69540;42.136;24.742;2024-03-29T04:34:25;7.88;;;1.58;;
80229;SDS011;69540;42.136;24.742;2024-03-29T04:36:51;5.68;;;1.85;;
80229;SDS011;69540;42.136;24.742;2024-03-29T04:39:17;6.32;;;2.03;;
80229;SDS011;69540;42.136;24.742;2024-03-29T04:41:42;6.72;;;1.70;;
80229;SDS011;69540;42.136;24.742;2024-03-29T04:44:09;3.03;;;1.60;;
80229;SDS011;69540;42.136;24.742;2024-03-29T04:46:37;4.97;;;1.65;;
80229;SDS011;69540;42.136;24.742;2024-03-29T04:49:02;6.25;;;1.65;;
80229;SDS011;69540;42.136;24.742;2024-03-29T04:51:28;3.78;;;1.27;;
80229;SDS011;69540;42.136;24.742;2024-03-29T04:53:54;4.35;;;1.40;;
80229;SDS011;69540;42.136;24.742;2024-03-29T04:56:19;4.60;;;1.48;;
80229;SDS011;69540;42.136;24.742;2024-03-29T04:58:45;7.18;;;1.63;;
80229;SDS011;69540;42.136;24.742;2024-03-29T05:01:11;3.65;;;1.23;;
80229;SDS011;69540;42.136;24.742;2024-03-29T05:03:37;3.38;;;1.67;;
80229;SDS011;69540;42.136;24.742;2024-03-29T05:06:02;5.65;;;1.35;;
80229;SDS011;69540;42.136;24.742;2024-03-29T05:08:28;4.40;;;1.60;;
80229;SDS011;69540;42.136;24.742;2024-03-29T05:10:54;2.33;;;1.33;;
80229;SDS011;69540;42.136;24.742;2024-03-29T05:13:19;4.53;;;1.60;;
80229;SDS011;69540;42.136;24.742;2024-03-29T05:15:48;3.97;;;1.42;;
80229;SDS011;69540;42.136;24.742;2024-03-29T05:18:14;4.47;;;1.65;;
80229;SDS011;69540;42.136;24.742;2024-03-29T05:20:40;5.53;;;2.20;;
80229;SDS011;69540;42.136;24.742;2024-03-29T05:23:06;3.55;;;1.48;;
80229;SDS011;69540;42.136;24.742;2024-03-29T05:25:32;3.15;;;1.40;;
80229;SDS011;69540;42.136;24.742;2024-03-29T05:27:58;2.95;;;0.85;;
80229;SDS011;69540;42.136;24.742;2024-03-29T05:30:24;3.17;;;1.25;;
80229;SDS011;69540;42.136;24.742;2024-03-29T05:32:49;4.07;;;1.42;;
80229;SDS011;69540;42.136;24.742;2024-03-29T05:35:15;4.25;;;1.60;;
80229;SDS011;69540;42.136;24.742;2024-03-29T05:37:41;5.80;;;1.63;;
80229;SDS011;69540;42.136;24.742;2024-03-29T05:40:07;8.15;;;1.83;;
80229;SDS011;69540;42.136;24.742;2024-03-29T05:42:34;4.18;;;1.50;;
80229;SDS011;69540;42.136;24.742;2024-03-29T05:45:01;3.40;;;1.30;;
80229;SDS011;69540;42.136;24.742;2024-03-29T05:47:29;1.88;;;1.25;;
80229;SDS011;69540;42.136;24.742;2024-03-29T05:49:55;4.68;;;2.00;;
80229;SDS011;69540;42.136;24.742;2024-03-29T05:52:21;4.47;;;1.92;;
80229;SDS011;69540;42.136;24.742;2024-03-29T05:54:48;4.53;;;1.70;;
80229;SDS011;69540;42.136;24.742;2024-03-29T05:57:14;7.25;;;1.70;;
80229;SDS011;69540;42.136;24.742;2024-03-29T05:59:41;4.82;;;1.42;;
80229;SDS011;69540;42.136;24.742;2024-03-29T06:02:06;4.97;;;1.55;;
80229;SDS011;69540;42.136;24.742;2024-03-29T06:04:32;4.43;;;1.25;;
80229;SDS011;69540;42.136;24.742;2024-03-29T06:06:58;5.38;;;1.80;;
80229;SDS011;69540;42.136;24.742;2024-03-29T06:09:24;5.38;;;1.98;;
80229;SDS011;69540;42.136;24.742;2024-03-29T06:11:51;10.63;;;2.30;;
80229;SDS011;69540;42.136;24.742;2024-03-29T06:14:19;6.47;;;2.20;;
80229;SDS011;69540;42.136;24.742;2024-03-29T06:17:03;5.82;;;1.80;;
80229;SDS011;69540;42.136;24.742;2024-03-29T06:19:47;5.50;;;1.92;;
80229;SDS011;69540;42.136;24.742;2024-03-29T06:22:14;5.93;;;1.95;;
80229;SDS011;69540;42.136;24.742;2024-03-29T06:24:41;8.25;;;2.00;;
80229;SDS011;69540;42.136;24.742;2024-03-29T06:27:08;5.72;;;1.85;;
80229;SDS011;69540;42.136;24.742;2024-03-29T06:29:34;5.30;;;1.67;;
80229;SDS011;69540;42.136;24.742;2024-03-29T06:32:00;6.55;;;2.00;;
80229;SDS011;69540;42.136;24.742;2024-03-29T06:34:25;5.43;;;1.60;;
80229;SDS011;69540;42.136;24.742;2024-03-29T06:36:54;3.15;;;1.45;;
80229;SDS011;69540;42.136;24.742;2024-03-29T06:39:19;5.72;;;1.80;;
80229;SDS011;69540;42.136;24.742;2024-03-29T06:41:45;5.00;;;1.58;;
80229;SDS011;69540;42.136;24.742;2024-03-29T06:44:11;3.15;;;1.42;;
80229;SDS011;69540;42.136;24.742;2024-03-29T06:46:36;4.68;;;1.35;;
80229;SDS011;69540;42.136;24.742;2024-03-29T06:49:02;5.53;;;1.33;;
80229;SDS011;69540;42.136;24.742;2024-03-29T06:51:28;5.00;;;1.42;;
80229;SDS011;69540;42.136;24.742;2024-03-29T06:53:53;3.08;;;1.30;;
80229;SDS011;69540;42.136;24.742;2024-03-29T06:56:19;3.70;;;1.13;;
80229;SDS011;69540;42.136;24.742;2024-03-29T06:58:45;5.47;;;1.90;;
80229;SDS011;69540;42.136;24.742;2024-03-29T07:01:11;4.20;;;1.30;;
80229;SDS011;69540;42.136;24.742;2024-03-29T07:03:36;7.10;;;1.48;;
80229;SDS011;69540;42.136;24.742;2024-03-29T07:06:02;3.47;;;1.15;;
80229;SDS011;69540;42.136;24.742;2024-03-29T07:08:28;2.90;;;1.13;;
80229;SDS011;69540;42.136;24.742;2024-03-29T07:11:00;2.60;;;1.10;;
80229;SDS011;69540;42.136;24.742;2024-03-29T07:13:28;3.50;;;1.13;;
80229;SDS011;69540;42.136;24.742;2024-03-29T07:15:56;3.28;;;1.30;;
80229;SDS011;69540;42.136;24.742;2024-03-29T07:18:25;3.20;;;1.77;;
80229;SDS011;69540;42.136;24.742;2024-03-29T07:20:51;4.68;;;1.50;;
80229;SDS011;69540;42.136;24.742;2024-03-29T07:23:17;3.03;;;1.13;;
80229;SDS011;69540;42.136;24.742;2024-03-29T07:25:57;3.55;;;1.27;;
80229;SDS011;69540;42.136;24.742;2024-03-29T07:28:27;3.88;;;1.10;;
80229;SDS011;69540;42.136;24.742;2024-03-29T07:30:53;4.07;;;1.20;;
80229;SDS011;69540;42.136;24.742;2024-03-29T07:33:19;2.30;;;1.05;;
80229;SDS011;69540;42.136;24.742;2024-03-29T07:35:52;2.35;;;1.10;;
80229;SDS011;69540;42.136;24.742;2024-03-29T07:38:18;2.13;;;1.10;;
80229;SDS011;69540;42.136;24.742;2024-03-29T07:40:46;2.85;;;1.08;;
80229;SDS011;69540;42.136;24.742;2024-03-29T07:43:12;2.15;;;1.08;;
80229;SDS011;69540;42.136;24.742;2024-03-29T07:45:44;2.95;;;0.90;;
80229;SDS011;69540;42.136;24.742;2024-03-29T07:48:11;1.20;;;0.82;;
80229;SDS011;69540;42.136;24.742;2024-03-29T07:50:38;1.30;;;1.20;;
80229;SDS011;69540;42.136;24.742;2024-03-29T07:53:05;3.45;;;1.00;;
80229;SDS011;69540;42.136;24.742;2024-03-29T07:55:30;2.78;;;1.00;;
80229;SDS011;69540;42.136;24.742;2024-03-29T07:57:56;1.67;;;1.05;;
80229;SDS011;69540;42.136;24.742;2024-03-29T08:00:22;3.13;;;1.20;;
80229;SDS011;69540;42.136;24.742;2024-03-29T08:02:48;1.77;;;1.17;;
80229;SDS011;69540;42.136;24.742;2024-03-29T08:05:15;2.85;;;1.20;;
80229;SDS011;69540;42.136;24.742;2024-03-29T08:07:41;1.35;;;0.80;;
80229;SDS011;69540;42.136;24.742;2024-03-29T08:10:06;1.50;;;1.08;;
80229;SDS011;69540;42.136;24.742;2024-03-29T08:12:32;2.20;;;0.90;;
80229;SDS011;69540;42.136;24.742;2024-03-29T08:15:00;2.67;;;1.02;;
80229;SDS011;69540;42.136;24.742;2024-03-29T08:17:26;4.30;;;1.23;;
80229;SDS011;69540;42.136;24.742;2024-03-29T08:19:51;2.90;;;1.30;;
80229;SDS011;69540;42.136;24.742;2024-03-29T08:22:17;2.63;;;1.30;;
80229;SDS011;69540;42.136;24.742;2024-03-29T08:24:42;3.65;;;1.10;;
80229;SDS011;69540;42.136;24.742;2024-03-29T08:27:09;2.72;;;0.98;;
80229;SDS011;69540;42.136;24.742;2024-03-29T08:29:35;1.00;;;0.80;;
80229;SDS011;69540;42.136;24.742;2024-03-29T08:32:00;1.98;;;1.00;;
80229;SDS011;69540;42.136;24.742;2024-03-29T08:34:26;4.65;;;1.40;;
80229;SDS011;69540;42.136;24.742;2024-03-29T08:36:57;3.80;;;1.30;;
80229;SDS011;69540;42.136;24.742;2024-03-29T08:39:23;3.15;;;1.10;;
80229;SDS011;69540;42.136;24.742;2024-03-29T08:41:48;2.13;;;0.90;;
80229;SDS011;69540;42.136;24.742;2024-03-29T08:44:14;1.05;;;0.77;;
80229;SDS011;69540;42.136;24.742;2024-03-29T08:46:40;1.65;;;1.13;;
80229;SDS011;69540;42.136;24.742;2024-03-29T08:49:05;3.85;;;1.33;;
80229;SDS011;69540;42.136;24.742;2024-03-29T08:51:31;2.83;;;0.93;;
80229;SDS011;69540;42.136;24.742;2024-03-29T08:53:57;1.75;;;0.90;;
80229;SDS011;69540;42.136;24.742;2024-03-29T08:56:23;1.58;;;0.90;;
80229;SDS011;69540;42.136;24.742;2024-03-29T08:58:49;3.83;;;1.00;;
80229;SDS011;69540;42.136;24.742;2024-03-29T09:01:14;1.75;;;0.90;;
80229;SDS011;69540;42.136;24.742;2024-03-29T09:03:40;3.65;;;0.88;;
80229;SDS011;69540;42.136;24.742;2024-03-29T09:06:06;1.83;;;0.77;;
80229;SDS011;69540;42.136;24.742;2024-03-29T09:08:31;2.28;;;0.70;;
80229;SDS011;69540;42.136;24.742;2024-03-29T09:10:57;1.25;;;0.80;;
80229;SDS011;69540;42.136;24.742;2024-03-29T09:13:23;2.92;;;1.00;;
80229;SDS011;69540;42.136;24.742;2024-03-29T09:15:49;2.63;;;0.90;;
80229;SDS011;69540;42.136;24.742;2024-03-29T09:18:15;2.13;;;1.13;;
80229;SDS011;69540;42.136;24.742;2024-03-29T09:20:58;3.85;;;1.13;;
80229;SDS011;69540;42.136;24.742;2024-03-29T09:23:27;2.67;;;1.08;;
80229;SDS011;69540;42.136;24.742;2024-03-29T09:25:54;1.73;;;0.88;;
80229;SDS011;69540;42.136;24.742;2024-03-29T09:28:23;3.60;;;0.93;;
80229;SDS011;69540;42.136;24.742;2024-03-29T09:30:50;3.05;;;1.00;;
80229;SDS011;69540;42.136;24.742;2024-03-29T09:33:23;2.47;;;1.10;;
80229;SDS011;69540;42.136;24.742;2024-03-29T09:35:48;3.05;;;1.10;;
80229;SDS011;69540;42.136;24.742;2024-03-29T09:38:15;3.05;;;1.80;;
80229;SDS011;69540;42.136;24.742;2024-03-29T09:40:41;2.28;;;1.30;;
80229;SDS011;69540;42.136;24.742;2024-03-29T09:43:07;2.80;;;1.17;;
80229;SDS011;69540;42.136;24.742;2024-03-29T09:45:35;1.48;;;1.00;;
80229;SDS011;69540;42.136;24.742;2024-03-29T09:48:04;1.25;;;1.00;;
80229;SDS011;69540;42.136;24.742;2024-03-29T09:50:33;0.95;;;0.85;;
80229;SDS011;69540;42.136;24.742;2024-03-29T09:53:06;2.60;;;1.13;;
80229;SDS011;69540;42.136;24.742;2024-03-29T09:55:35;2.90;;;1.33;;
80229;SDS011;69540;42.136;24.742;2024-03-29T09:58:02;1.38;;;1.00;;
80229;SDS011;69540;42.136;24.742;2024-03-29T10:00:29;1.50;;;0.88;;
80229;SDS011;69540;42.136;24.742;2024-03-29T10:02:55;1.50;;;0.90;;
80229;SDS011;69540;42.136;24.742;2024-03-29T10:05:24;2.20;;;0.70;;
80229;SDS011;69540;42.136;24.742;2024-03-29T10:07:52;1.08;;;0.70;;
80229;SDS011;69540;42.136;24.742;2024-03-29T10:10:19;3.20;;;1.15;;
80229;SDS011;69540;42.136;24.742;2024-03-29T10:12:44;1.83;;;1.30;;
80229;SDS011;69540;42.136;24.742;2024-03-29T10:15:10;2.05;;;1.10;;
80229;SDS011;69540;42.136;24.742;2024-03-29T10:17:45;1.45;;;1.15;;
80229;SDS011;69540;42.136;24.742;2024-03-29T10:20:18;2.15;;;1.13;;
80229;SDS011;69540;42.136;24.742;2024-03-29T10:22:44;2.90;;;1.20;;
80229;SDS011;69540;42.136;24.742;2024-03-29T10:25:11;2.90;;;1.40;;
80229;SDS011;69540;42.136;24.742;2024-03-29T10:27:38;2.15;;;1.02;;
80229;SDS011;69540;42.136;24.742;2024-03-29T10:30:06;1.05;;;0.88;;
80229;SDS011;69540;42.136;24.742;2024-03-29T10:32:34;2.33;;;0.90;;
80229;SDS011;69540;42.136;24.742;2024-03-29T10:37:32;3.28;;;1.10;;
80229;SDS011;69540;42.136;24.742;2024-03-29T10:40:03;1.42;;;0.85;;
80229;SDS011;69540;42.136;24.742;2024-03-29T10:42:33;2.13;;;1.20;;
80229;SDS011;69540;42.136;24.742;2024-03-29T10:45:04;1.50;;;0.70;;
80229;SDS011;69540;42.136;24.742;2024-03-29T10:47:31;1.65;;;0.82;;
80229;SDS011;69540;42.136;24.742;2024-03-29T10:49:58;0.88;;;0.82;;
80229;SDS011;69540;42.136;24.742;2024-03-29T10:52:24;1.48;;;0.90;;
80229;SDS011;69540;42.136;24.742;2024-03-29T10:54:51;1.80;;;0.70;;
80229;SDS011;69540;42.136;24.742;2024-03-29T10:57:22;4.20;;;1.95;;
80229;SDS011;69540;42.136;24.742;2024-03-29T11:00:06;2.92;;;1.52;;
80229;SDS011;69540;42.136;24.742;2024-03-29T11:02:46;2.90;;;1.20;;
80229;SDS011;69540;42.136;24.742;2024-03-29T11:05:14;1.75;;;1.20;;
80229;SDS011;69540;42.136;24.742;2024-03-29T11:07:41;1.85;;;0.80;;
80229;SDS011;69540;42.136;24.742;2024-03-29T11:10:11;2.92;;;1.00;;
80229;SDS011;69540;42.136;24.742;2024-03-29T11:15:27;2.53;;;0.70;;
80229;SDS011;69540;42.136;24.742;2024-03-29T11:17:55;2.87;;;1.00;;
80229;SDS011;69540;42.136;24.742;2024-03-29T11:20:25;1.85;;;1.75;;
80229;SDS011;69540;42.136;24.742;2024-03-29T11:23:09;1.85;;;1.05;;
80229;SDS011;69540;42.136;24.742;2024-03-29T11:25:40;2.97;;;0.98;;
80229;SDS011;69540;42.136;24.742;2024-03-29T11:28:13;1.42;;;0.57;;
80229;SDS011;69540;42.136;24.742;2024-03-29T11:30:46;2.08;;;0.88;;
80229;SDS011;69540;42.136;24.742;2024-03-29T11:33:27;3.70;;;1.00;;
80229;SDS011;69540;42.136;24.742;2024-03-29T11:35:57;1.98;;;1.00;;
80229;SDS011;69540;42.136;24.742;2024-03-29T11:38:31;1.17;;;0.70;;
80229;SDS011;69540;42.136;24.742;2024-03-29T11:41:02;1.13;;;0.70;;
80229;SDS011;69540;42.136;24.742;2024-03-29T11:43:29;1.88;;;1.00;;
80229;SDS011;69540;42.136;24.742;2024-03-29T11:45:59;1.48;;;0.85;;
80229;SDS011;69540;42.136;24.742;2024-03-29T11:48:26;1.17;;;0.70;;
80229;SDS011;69540;42.136;24.742;2024-03-29T11:50:53;2.10;;;0.95;;
80229;SDS011;69540;42.136;24.742;2024-03-29T11:53:19;6.72;;;5.75;;
80229;SDS011;69540;42.136;24.742;2024-03-29T11:55:46;2.08;;;1.30;;
80229;SDS011;69540;42.136;24.742;2024-03-29T11:58:13;2.15;;;1.15;;
80229;SDS011;69540;42.136;24.742;2024-03-29T12:00:40;1.75;;;1.10;;
80229;SDS011;69540;42.136;24.742;2024-03-29T12:03:09;1.48;;;1.15;;
80229;SDS011;69540;42.136;24.742;2024-03-29T12:05:35;2.00;;;1.52;;
80229;SDS011;69540;42.136;24.742;2024-03-29T12:08:01;1.75;;;1.10;;
80229;SDS011;69540;42.136;24.742;2024-03-29T12:10:28;1.40;;;1.00;;
80229;SDS011;69540;42.136;24.742;2024-03-29T12:12:57;1.38;;;1.27;;
80229;SDS011;69540;42.136;24.742;2024-03-29T12:15:23;1.95;;;0.90;;
80229;SDS011;69540;42.136;24.742;2024-03-29T12:17:57;1.08;;;0.77;;
80229;SDS011;69540;42.136;24.742;2024-03-29T12:20:24;4.25;;;0.90;;
80229;SDS011;69540;42.136;24.742;2024-03-29T12:22:50;2.00;;;0.85;;
80229;SDS011;69540;42.136;24.742;2024-03-29T12:25:15;1.48;;;1.15;;
80229;SDS011;69540;42.136;24.742;2024-03-29T12:27:44;1.35;;;1.15;;
80229;SDS011;69540;42.136;24.742;2024-03-29T12:30:12;2.03;;;1.15;;
80229;SDS011;69540;42.136;24.742;2024-03-29T12:32:38;1.75;;;0.90;;
80229;SDS011;69540;42.136;24.742;2024-03-29T12:35:08;0.85;;;0.68;;
80229;SDS011;69540;42.136;24.742;2024-03-29T12:37:35;2.00;;;0.90;;
80229;SDS011;69540;42.136;24.742;2024-03-29T12:40:01;3.33;;;0.88;;
80229;SDS011;69540;42.136;24.742;2024-03-29T12:42:39;2.63;;;1.20;;
80229;SDS011;69540;42.136;24.742;2024-03-29T12:45:06;2.65;;;0.68;;
80229;SDS011;69540;42.136;24.742;2024-03-29T12:47:33;1.55;;;1.05;;
80229;SDS011;69540;42.136;24.742;2024-03-29T12:50:00;1.05;;;0.98;;
80229;SDS011;69540;42.136;24.742;2024-03-29T12:52:26;2.50;;;1.13;;
80229;SDS011;69540;42.136;24.742;2024-03-29T12:54:52;1.58;;;1.20;;
80229;SDS011;69540;42.136;24.742;2024-03-29T12:57:17;3.78;;;1.33;;
80229;SDS011;69540;42.136;24.742;2024-03-29T12:59:43;5.20;;;1.63;;
80229;SDS011;69540;42.136;24.742;2024-03-29T13:02:11;2.80;;;1.85;;
80229;SDS011;69540;42.136;24.742;2024-03-29T13:04:38;1.98;;;1.00;;
80229;SDS011;69540;42.136;24.742;2024-03-29T13:07:08;1.60;;;0.90;;
80229;SDS011;69540;42.136;24.742;2024-03-29T13:09:34;4.75;;;1.38;;
80229;SDS011;69540;42.136;24.742;2024-03-29T13:12:00;2.35;;;0.80;;
80229;SDS011;69540;42.136;24.742;2024-03-29T13:14:25;2.65;;;1.23;;
80229;SDS011;69540;42.136;24.742;2024-03-29T13:16:51;3.78;;;1.40;;
80229;SDS011;69540;42.136;24.742;2024-03-29T13:19:17;1.63;;;1.00;;
80229;SDS011;69540;42.136;24.742;2024-03-29T13:21:43;2.55;;;1.20;;
80229;SDS011;69540;42.136;24.742;2024-03-29T13:24:08;2.22;;;1.50;;
80229;SDS011;69540;42.136;24.742;2024-03-29T13:26:34;3.60;;;1.15;;
80229;SDS011;69540;42.136;24.742;2024-03-29T13:29:00;1.40;;;1.08;;
80229;SDS011;69540;42.136;24.742;2024-03-29T13:31:25;3.30;;;1.25;;
80229;SDS011;69540;42.136;24.742;2024-03-29T13:33:53;1.98;;;1.02;;
80229;SDS011;69540;42.136;24.742;2024-03-29T13:36:28;4.05;;;0.90;;
80229;SDS011;69540;42.136;24.742;2024-03-29T13:38:55;1.58;;;0.85;;
80229;SDS011;69540;42.136;24.742;2024-03-29T13:41:21;1.20;;;1.10;;
80229;SDS011;69540;42.136;24.742;2024-03-29T13:43:46;2.15;;;1.02;;
80229;SDS011;69540;42.136;24.742;2024-03-29T13:46:12;3.45;;;1.10;;
80229;SDS011;69540;42.136;24.742;2024-03-29T13:48:38;2.15;;;1.27;;
80229;SDS011;69540;42.136;24.742;2024-03-29T13:51:04;3.30;;;1.33;;
80229;SDS011;69540;42.136;24.742;2024-03-29T13:53:31;2.60;;;1.27;;
80229;SDS011;69540;42.136;24.742;2024-03-29T13:56:00;3.67;;;1.45;;
80229;SDS011;69540;42.136;24.742;2024-03-29T13:58:28;4.32;;;1.90;;
80229;SDS011;69540;42.136;24.742;2024-03-29T14:00:55;3.63;;;1.20;;
80229;SDS011;69540;42.136;24.742;2024-03-29T14:03:25;1.55;;;1.10;;
80229;SDS011;69540;42.136;24.742;2024-03-29T14:05:51;2.20;;;1.50;;
80229;SDS011;69540;42.136;24.742;2024-03-29T14:08:17;4.97;;;1.38;;
80229;SDS011;69540;42.136;24.742;2024-03-29T14:10:42;2.33;;;1.42;;
80229;SDS011;69540;42.136;24.742;2024-03-29T14:13:09;2.00;;;1.40;;
80229;SDS011;69540;42.136;24.742;2024-03-29T14:15:34;2.72;;;1.30;;
80229;SDS011;69540;42.136;24.742;2024-03-29T14:18:00;3.88;;;1.50;;
80229;SDS011;69540;42.136;24.742;2024-03-29T14:20:26;1.73;;;1.08;;
80229;SDS011;69540;42.136;24.742;2024-03-29T14:22:53;2.58;;;1.70;;
80229;SDS011;69540;42.136;24.742;2024-03-29T14:25:22;4.38;;;1.85;;
80229;SDS011;69540;42.136;24.742;2024-03-29T14:27:48;3.40;;;2.00;;
80229;SDS011;69540;42.136;24.742;2024-03-29T14:30:20;3.20;;;2.03;;
80229;SDS011;69540;42.136;24.742;2024-03-29T14:32:46;2.78;;;1.90;;
80229;SDS011;69540;42.136;24.742;2024-03-29T14:35:15;2.10;;;1.90;;
80229;SDS011;69540;42.136;24.742;2024-03-29T14:37:42;2.00;;;1.70;;
80229;SDS011;69540;42.136;24.742;2024-03-29T14:40:08;2.97;;;1.90;;